createdAt,value
2023-02-04T00:00:07.787Z,1.06
2023-02-04T00:02:34.909Z,1.31
2023-02-04T00:05:01.942Z,1.10
2023-02-04T00:07:28.887Z,0.94
2023-02-04T00:09:55.859Z,1.08
2023-02-04T00:12:23.372Z,1.10
2023-02-04T00:14:50.429Z,1.24
2023-02-04T00:17:17.354Z,0.94
2023-02-04T00:19:44.269Z,0.80
2023-02-04T00:22:11.164Z,0.84
2023-02-04T00:24:38.586Z,1.06
2023-02-04T00:27:07.097Z,1.04
2023-02-04T00:29:34.373Z,1.07
2023-02-04T00:32:01.551Z,0.57
2023-02-04T00:34:28.552Z,0.56
2023-02-04T00:36:55.438Z,-0.02
2023-02-04T00:39:22.455Z,0.35
2023-02-04T00:41:49.414Z,0.52
2023-02-04T00:44:16.421Z,0.42
2023-02-04T00:46:43.379Z,0.45
2023-02-04T00:49:11.016Z,0.95
2023-02-04T00:51:39.799Z,0.27
2023-02-04T00:54:07.964Z,0.82
2023-02-04T00:56:35.223Z,1.05
2023-02-04T00:59:02.862Z,0.94
2023-02-04T01:01:30.078Z,1.32
2023-02-04T01:03:57.069Z,1.50
2023-02-04T01:06:24.243Z,1.29
2023-02-04T01:08:51.554Z,1.11
2023-02-04T01:11:19.519Z,1.31
2023-02-04T01:13:46.688Z,1.55
2023-02-04T01:16:14.829Z,1.57
2023-02-04T01:18:43.944Z,1.42
2023-02-04T01:21:10.967Z,0.62
2023-02-04T01:23:38.049Z,0.99
2023-02-04T01:26:05.189Z,1.01
2023-02-04T01:28:32.401Z,1.15
2023-02-04T01:30:59.385Z,1.27
2023-02-04T01:33:26.297Z,1.47
2023-02-04T01:35:53.253Z,1.07
2023-02-04T01:38:20.103Z,0.79
2023-02-04T01:40:48.217Z,1.04
2023-02-04T01:43:17.964Z,1.45
2023-02-04T01:45:46.671Z,1.50
2023-02-04T01:48:20.372Z,1.02
2023-02-04T01:50:52.691Z,1.22
2023-02-04T01:53:23.241Z,1.27
2023-02-04T01:55:51.512Z,1.42
2023-02-04T01:58:19.062Z,1.66
2023-02-04T02:00:46.343Z,1.89
2023-02-04T02:03:13.529Z,1.75
2023-02-04T02:05:46.558Z,1.63
2023-02-04T02:08:14.935Z,1.00
2023-02-04T02:10:45.003Z,1.19
2023-02-04T02:13:15.276Z,1.40
2023-02-04T02:15:42.844Z,1.58
2023-02-04T02:18:10.507Z,1.75
2023-02-04T02:20:37.972Z,1.20
2023-02-04T02:23:13.694Z,1.28
2023-02-04T02:25:40.859Z,1.62
2023-02-04T02:28:13.404Z,1.79
2023-02-04T02:30:41.604Z,1.51
2023-02-04T02:33:08.919Z,2.00
2023-02-04T02:35:35.936Z,2.08
2023-02-04T02:38:03.027Z,2.03
2023-02-04T02:40:30.261Z,1.92
2023-02-04T02:42:57.336Z,1.82
2023-02-04T02:45:27.467Z,1.77
2023-02-04T02:47:56.401Z,1.76
2023-02-04T02:50:26.288Z,1.88
2023-02-04T02:52:54.769Z,2.06
2023-02-04T02:55:27.751Z,1.94
2023-02-04T02:57:56.714Z,1.70
2023-02-04T03:00:28.690Z,1.82
2023-02-04T03:03:16.349Z,1.66
2023-02-04T03:05:46.973Z,1.69
2023-02-04T03:08:16.591Z,1.99
2023-02-04T03:10:44.598Z,1.86
2023-02-04T03:13:14.982Z,1.84
2023-02-04T03:15:44.198Z,1.78
2023-02-04T03:18:12.636Z,1.67
2023-02-04T03:20:40.609Z,1.80
2023-02-04T03:23:07.662Z,1.84
2023-02-04T03:25:35.285Z,1.83
2023-02-04T03:28:02.509Z,1.56
2023-02-04T03:30:29.982Z,1.37
2023-02-04T03:32:58.172Z,1.27
2023-02-04T03:35:25.434Z,1.22
2023-02-04T03:37:52.870Z,1.27
2023-02-04T03:40:19.973Z,1.09
2023-02-04T03:42:47.057Z,1.03
2023-02-04T03:45:14.202Z,0.95
2023-02-04T03:47:41.113Z,0.64
2023-02-04T03:50:08.413Z,0.79
2023-02-04T03:52:35.420Z,0.87
2023-02-04T03:55:02.365Z,0.65
2023-02-04T03:57:29.334Z,0.51
2023-02-04T03:59:56.231Z,0.38
2023-02-04T04:02:23.202Z,0.33
2023-02-04T04:04:50.154Z,0.56
2023-02-04T04:07:17.126Z,0.67
2023-02-04T04:09:44.059Z,0.70
2023-02-04T04:12:10.988Z,0.58
2023-02-04T04:14:37.846Z,0.37
2023-02-04T04:17:04.824Z,0.53
2023-02-04T04:19:32.715Z,0.49
2023-02-04T04:21:59.687Z,0.67
2023-02-04T04:24:26.704Z,0.54
2023-02-04T04:26:53.592Z,0.47
2023-02-04T04:29:20.481Z,0.45
2023-02-04T04:31:47.502Z,0.62
2023-02-04T04:34:14.509Z,0.57
2023-02-04T04:36:41.402Z,0.39
2023-02-04T04:39:08.352Z,0.89
2023-02-04T04:41:35.300Z,0.96
2023-02-04T04:44:02.219Z,0.83
2023-02-04T04:46:29.284Z,0.99
2023-02-04T04:48:56.232Z,1.10
2023-02-04T04:51:23.256Z,1.13
2023-02-04T04:53:51.268Z,1.02
2023-02-04T04:56:19.375Z,0.94
2023-02-04T04:58:46.255Z,0.91
2023-02-04T05:01:13.194Z,0.88
2023-02-04T05:03:40.090Z,0.72
2023-02-04T05:06:07.176Z,1.00
2023-02-04T05:08:35.919Z,0.96
2023-02-04T05:11:03.977Z,0.95
2023-02-04T05:13:30.963Z,0.92
2023-02-04T05:15:57.945Z,0.83
2023-02-04T05:18:24.897Z,0.89
2023-02-04T05:20:51.814Z,1.05
2023-02-04T05:23:18.727Z,1.12
2023-02-04T05:25:45.608Z,1.09
2023-02-04T05:28:12.565Z,1.02
2023-02-04T05:30:39.524Z,0.99
2023-02-04T05:33:06.436Z,0.86
2023-02-04T05:35:33.422Z,0.96
2023-02-04T05:38:00.303Z,0.96
2023-02-04T05:40:27.266Z,0.90
2023-02-04T05:42:54.194Z,0.84
2023-02-04T05:45:21.058Z,0.73
2023-02-04T05:47:47.968Z,0.71
2023-02-04T05:50:15.273Z,0.67
2023-02-04T05:52:42.137Z,0.75
2023-02-04T05:55:12.482Z,0.71
2023-02-04T05:57:42.622Z,0.71
2023-02-04T06:00:11.492Z,0.58
2023-02-04T06:02:41.428Z,0.56
2023-02-04T06:05:08.795Z,0.51
2023-02-04T06:07:35.746Z,0.60
2023-02-04T06:10:02.662Z,0.61
2023-02-04T06:12:29.591Z,0.52
2023-02-04T06:14:56.560Z,0.50
2023-02-04T06:17:23.507Z,0.74
2023-02-04T06:19:50.418Z,0.83
2023-02-04T06:22:17.572Z,0.96
2023-02-04T06:24:46.613Z,0.86
2023-02-04T06:27:14.322Z,0.90
2023-02-04T06:29:41.250Z,0.85
2023-02-04T06:32:08.094Z,0.94
2023-02-04T06:34:34.981Z,1.09
2023-02-04T06:37:01.854Z,1.19
2023-02-04T06:39:28.759Z,1.09
2023-02-04T06:41:55.650Z,1.08
2023-02-04T06:44:22.570Z,1.06
2023-02-04T06:46:49.527Z,1.19
2023-02-04T06:49:16.500Z,1.30
2023-02-04T06:51:43.370Z,1.15
2023-02-04T06:54:10.343Z,1.04
2023-02-04T06:56:37.794Z,0.99
2023-02-04T06:59:04.686Z,1.02
2023-02-04T07:01:31.987Z,1.04
2023-02-04T07:03:58.837Z,0.99
2023-02-04T07:06:25.794Z,1.06
2023-02-04T07:08:52.703Z,0.95
2023-02-04T07:11:19.835Z,0.91
2023-02-04T07:13:46.730Z,1.06
2023-02-04T07:16:13.665Z,0.97
2023-02-04T07:18:40.842Z,1.24
2023-02-04T07:21:07.743Z,1.24
2023-02-04T07:23:34.585Z,1.05
2023-02-04T07:26:01.961Z,0.98
2023-02-04T07:28:29.028Z,1.09
2023-02-04T07:30:56.076Z,1.12
2023-02-04T07:33:23.036Z,1.43
2023-02-04T07:35:49.915Z,1.55
2023-02-04T07:38:16.766Z,1.54
2023-02-04T07:40:43.697Z,1.49
2023-02-04T07:43:10.867Z,1.37
2023-02-04T07:45:38.609Z,1.50
2023-02-04T07:48:05.865Z,1.62
2023-02-04T07:50:32.965Z,1.65
2023-02-04T07:53:00.018Z,1.59
2023-02-04T07:55:26.930Z,1.49
2023-02-04T07:57:54.008Z,1.62
2023-02-04T08:00:21.481Z,1.83
2023-02-04T08:02:48.559Z,1.56
2023-02-04T08:05:15.772Z,1.75
2023-02-04T08:07:42.768Z,1.38
2023-02-04T08:10:10.970Z,1.35
2023-02-04T08:12:38.362Z,1.64
2023-02-04T08:15:07.844Z,1.61
2023-02-04T08:17:35.382Z,2.05
2023-02-04T08:20:02.851Z,2.02
2023-02-04T08:22:29.851Z,2.10
2023-02-04T08:24:56.823Z,2.09
2023-02-04T08:27:23.709Z,2.00
2023-02-04T08:29:50.554Z,2.30
2023-02-04T08:32:17.477Z,2.52
2023-02-04T08:34:44.455Z,2.44
2023-02-04T08:37:11.369Z,2.27
2023-02-04T08:39:38.590Z,2.19
2023-02-04T08:42:05.544Z,2.27
2023-02-04T08:44:32.459Z,2.45
2023-02-04T08:46:59.498Z,2.45
2023-02-04T08:49:26.476Z,2.41
2023-02-04T08:51:53.361Z,2.46
2023-02-04T08:54:20.380Z,2.61
2023-02-04T08:56:47.308Z,2.37
2023-02-04T08:59:14.210Z,2.72
2023-02-04T09:01:41.127Z,2.63
2023-02-04T09:04:08.380Z,2.78
2023-02-04T09:06:35.288Z,2.36
2023-02-04T09:09:02.394Z,2.06
2023-02-04T09:11:29.285Z,2.27
2023-02-04T09:13:57.506Z,2.69
2023-02-04T09:16:24.480Z,2.64
2023-02-04T09:18:51.465Z,2.37
2023-02-04T09:21:18.443Z,2.83
2023-02-04T09:23:46.875Z,2.89
2023-02-04T09:26:13.826Z,2.90
2023-02-04T09:28:40.745Z,2.82
2023-02-04T09:31:07.852Z,3.31
2023-02-04T09:33:35.511Z,3.47
2023-02-04T09:36:02.813Z,3.43
2023-02-04T09:38:29.758Z,3.34
2023-02-04T09:41:01.437Z,3.29
2023-02-04T09:43:31.867Z,2.98
2023-02-04T10:17:22.127Z,2.49
2023-02-04T10:19:49.748Z,2.36
2023-02-04T10:22:19.823Z,2.42
2023-02-04T10:24:46.974Z,2.56
2023-02-04T10:27:17.998Z,2.96
2023-02-04T10:29:58.737Z,2.87
2023-02-04T10:32:27.680Z,3.25
2023-02-04T10:34:59.519Z,2.97
2023-02-04T10:37:26.775Z,2.73
2023-02-04T10:39:54.226Z,2.84
2023-02-04T10:42:27.313Z,3.11
2023-02-04T10:44:54.595Z,3.25
2023-02-04T10:47:24.819Z,3.11
2023-02-04T10:50:06.382Z,2.86
2023-02-04T10:52:39.644Z,2.69
2023-02-04T10:55:13.582Z,2.86
2023-02-04T10:57:42.539Z,2.86
2023-02-04T11:00:23.906Z,2.93
2023-02-04T11:02:58.895Z,2.98
2023-02-04T11:05:31.603Z,3.00
2023-02-04T11:07:58.876Z,2.80
2023-02-04T11:10:31.651Z,2.97
2023-02-04T11:12:58.649Z,2.97
2023-02-04T11:15:50.992Z,3.08
2023-02-04T11:18:21.010Z,2.87
2023-02-04T11:20:49.806Z,2.81
2023-02-04T11:23:30.883Z,2.60
2023-02-04T11:26:22.975Z,2.63
2023-02-04T11:28:51.926Z,2.64
2023-02-04T11:31:21.719Z,2.70
2023-02-04T11:33:50.842Z,2.75
2023-02-04T11:36:18.225Z,2.49
2023-02-04T11:38:50.249Z,2.52
2023-02-04T11:41:24.968Z,2.63
2023-02-04T11:43:56.291Z,2.57
2023-02-04T11:46:26.205Z,2.62
2023-02-04T11:48:55.056Z,2.55
2023-02-04T11:51:32.662Z,2.52
2023-02-04T11:53:59.918Z,2.52
2023-02-04T11:56:29.946Z,2.61
2023-02-04T11:58:58.874Z,2.70
2023-02-04T12:01:34.746Z,2.84
2023-02-04T12:04:04.940Z,2.85
2023-02-04T12:06:34.392Z,2.95
2023-02-04T12:09:17.611Z,2.77
2023-02-04T12:11:55.883Z,2.95
2023-02-04T12:14:29.579Z,2.97
2023-02-04T12:16:56.546Z,2.93
2023-02-04T12:19:23.686Z,2.82
2023-02-04T12:21:50.592Z,2.61
2023-02-04T12:24:17.506Z,2.38
2023-02-04T12:26:44.565Z,2.52
2023-02-04T12:29:11.440Z,2.41
2023-02-04T12:31:38.426Z,2.43
2023-02-04T12:34:05.347Z,2.26
2023-02-04T12:36:32.227Z,2.21
2023-02-04T12:38:59.142Z,2.19
2023-02-04T12:41:26.661Z,2.24
2023-02-04T12:43:55.762Z,2.27
2023-02-04T12:46:22.693Z,2.34
2023-02-04T12:48:49.682Z,2.30
2023-02-04T12:51:16.659Z,2.22
2023-02-04T12:53:43.624Z,2.17
2023-02-04T12:56:10.486Z,2.14
2023-02-04T12:58:37.421Z,2.04
2023-02-04T13:01:05.226Z,1.86
2023-02-04T13:03:32.953Z,1.74
2023-02-04T13:06:00.375Z,1.71
2023-02-04T13:08:27.299Z,1.68
2023-02-04T13:10:54.352Z,1.72
2023-02-04T13:13:22.518Z,1.95
2023-02-04T13:15:50.028Z,2.01
2023-02-04T13:18:18.511Z,1.96
2023-02-04T13:20:46.247Z,1.82
2023-02-04T13:23:14.167Z,1.76
2023-02-04T13:25:41.082Z,1.71
2023-02-04T13:28:08.024Z,1.70
2023-02-04T13:30:34.950Z,1.69
2023-02-04T13:33:01.898Z,1.76
2023-02-04T13:35:28.867Z,1.68
2023-02-04T13:37:56.575Z,1.62
2023-02-04T13:40:23.641Z,1.62
2023-02-04T13:42:50.582Z,1.65
2023-02-04T13:45:18.993Z,1.70
2023-02-04T13:47:48.110Z,1.59
2023-02-04T13:50:16.968Z,1.55
2023-02-04T13:52:43.895Z,1.51
2023-02-04T13:55:10.824Z,1.45
2023-02-04T13:57:38.103Z,1.45
2023-02-04T14:00:07.161Z,1.44
2023-02-04T14:02:39.506Z,1.74
2023-02-04T14:05:07.182Z,1.72
2023-02-04T14:07:34.305Z,1.53
2023-02-04T14:10:01.210Z,1.70
2023-02-04T14:12:28.133Z,1.72
2023-02-04T14:14:55.105Z,1.91
2023-02-04T14:17:21.996Z,1.90
2023-02-04T14:19:49.012Z,1.92
2023-02-04T14:22:16.135Z,1.90
2023-02-04T14:24:43.219Z,1.85
2023-02-04T14:27:11.061Z,1.77
2023-02-04T14:29:37.955Z,1.78
2023-02-04T14:32:05.103Z,1.71
2023-02-04T14:34:32.225Z,1.78
2023-02-04T14:36:59.159Z,1.71
2023-02-04T14:39:26.148Z,1.50
2023-02-04T14:41:53.128Z,1.49
2023-02-04T14:44:20.956Z,1.59
2023-02-04T14:46:49.082Z,1.57
2023-02-04T14:49:17.467Z,1.56
2023-02-04T14:51:44.673Z,1.47
2023-02-04T14:54:11.639Z,1.31
2023-02-04T14:56:38.697Z,1.41
2023-02-04T14:59:05.923Z,1.20
2023-02-04T15:01:32.886Z,1.24
2023-02-04T15:03:59.880Z,1.12
2023-02-04T15:06:26.812Z,1.15
2023-02-04T15:08:53.734Z,1.03
2023-02-04T15:11:20.710Z,0.99
2023-02-04T15:13:47.606Z,0.94
2023-02-04T15:16:15.039Z,0.92
2023-02-04T15:18:42.801Z,0.91
2023-02-04T15:21:10.273Z,0.91
2023-02-04T15:26:39.789Z,0.77
2023-02-04T15:29:07.051Z,0.64
2023-02-04T15:32:10.946Z,0.55
2023-02-04T15:35:15.357Z,0.50
2023-02-04T15:38:00.791Z,0.41
2023-02-04T15:40:46.468Z,0.40
2023-02-04T15:43:22.343Z,0.23
2023-02-04T15:45:49.467Z,0.15
2023-02-04T15:48:16.792Z,0.10
2023-02-04T15:50:44.114Z,0.06
2023-02-04T15:53:11.055Z,0.03
2023-02-04T15:55:37.961Z,-0.02
2023-02-04T15:58:05.433Z,-0.10
2023-02-04T16:00:32.571Z,-0.10
2023-02-04T16:02:59.893Z,-0.11
2023-02-04T16:05:26.888Z,-0.13
2023-02-04T16:07:53.766Z,-0.15
2023-02-04T16:10:20.895Z,-0.20
2023-02-04T16:12:47.910Z,-0.28
2023-02-04T16:15:15.185Z,-0.31
2023-02-04T16:17:42.216Z,-0.33
2023-02-04T16:20:10.551Z,-0.36
2023-02-04T16:22:37.442Z,-0.34
2023-02-04T16:25:04.870Z,-0.39
2023-02-04T16:27:32.053Z,-0.44
2023-02-04T16:29:59.136Z,-0.46
2023-02-04T16:32:26.729Z,-0.48
2023-02-04T16:34:56.874Z,-0.47
2023-02-04T16:37:24.044Z,-0.47
2023-02-04T16:39:52.243Z,-0.49
2023-02-04T16:42:20.292Z,-0.53
2023-02-04T16:44:47.251Z,-0.54
2023-02-04T16:47:14.478Z,-0.55
2023-02-04T16:49:41.475Z,-0.58
2023-02-04T16:52:08.478Z,-0.60
2023-02-04T16:54:35.517Z,-0.62
2023-02-04T16:57:03.853Z,-0.59
2023-02-04T16:59:31.980Z,-0.59
2023-02-04T17:02:00.719Z,-0.58
2023-02-04T17:04:28.466Z,-0.59
2023-02-04T17:06:55.615Z,-0.56
2023-02-04T17:09:22.670Z,-0.60
2023-02-04T17:11:49.627Z,-0.63
2023-02-04T17:14:16.548Z,-0.63
2023-02-04T17:16:45.275Z,-0.59
2023-02-04T17:19:13.746Z,-0.57
2023-02-04T17:21:41.050Z,-0.63
2023-02-04T17:24:08.977Z,-0.59
2023-02-04T17:26:37.736Z,-0.60
2023-02-04T17:29:12.203Z,-0.63
2023-02-04T17:31:39.907Z,-0.62
2023-02-04T17:34:07.120Z,-0.59
2023-02-04T17:36:34.263Z,-0.63
2023-02-04T17:39:01.537Z,-0.62
2023-02-04T17:41:28.580Z,-0.63
2023-02-04T17:43:55.598Z,-0.66
2023-02-04T17:46:22.703Z,-0.69
2023-02-04T17:48:49.616Z,-0.67
2023-02-04T17:51:16.930Z,-0.69
2023-02-04T17:53:44.042Z,-0.68
2023-02-04T17:56:14.959Z,-0.70
2023-02-04T17:58:42.451Z,-0.69
2023-02-04T18:01:19.003Z,-0.70
2023-02-04T18:03:48.733Z,-0.66
2023-02-04T18:06:22.835Z,-0.72
2023-02-04T18:08:51.956Z,-0.73
2023-02-04T18:11:27.936Z,-0.78
2023-02-04T18:14:00.572Z,-0.81
2023-02-04T18:16:30.709Z,-0.86
2023-02-04T18:19:18.382Z,-0.85
2023-02-04T18:21:46.762Z,-0.83
2023-02-04T18:24:39.693Z,-0.85
2023-02-04T18:27:16.858Z,-0.88
2023-02-04T18:29:46.885Z,-0.92
2023-02-04T18:32:16.361Z,-0.92
2023-02-04T18:34:48.810Z,-0.94
2023-02-04T18:37:30.931Z,-0.94
2023-02-04T18:40:18.487Z,-0.94
2023-02-04T18:42:46.539Z,-0.97
2023-02-04T18:45:25.135Z,-1.05
2023-02-04T18:47:57.427Z,-1.06
2023-02-04T18:50:30.043Z,-1.05
2023-02-04T18:53:13.624Z,-1.07
2023-02-04T18:55:49.211Z,-1.12
2023-02-04T18:58:35.852Z,-1.10
2023-02-04T19:01:16.930Z,-1.16
2023-02-04T19:03:50.199Z,-1.20
2023-02-04T19:06:33.704Z,-1.23
2023-02-04T19:09:27.428Z,-1.21
2023-02-04T19:11:56.708Z,-1.20
2023-02-04T19:14:37.654Z,-1.23
2023-02-04T19:17:16.977Z,-1.24
2023-02-04T19:19:46.241Z,-1.28
2023-02-04T19:22:36.174Z,-1.29
2023-02-04T19:25:32.723Z,-1.26
2023-02-04T19:28:02.052Z,-1.30
2023-02-04T19:30:29.110Z,-1.34
2023-02-04T19:32:57.708Z,-1.34
2023-02-04T19:35:35.557Z,-1.36
2023-02-04T19:38:26.641Z,-1.38
2023-02-04T19:40:53.597Z,-1.38
2023-02-04T19:43:35.568Z,-1.35
2023-02-04T19:46:15.437Z,-1.35
2023-02-04T19:48:44.233Z,-1.38
2023-02-04T19:51:23.831Z,-1.38
2023-02-04T19:53:52.360Z,-1.39
2023-02-04T19:56:37.661Z,-1.39
2023-02-04T19:59:39.992Z,-1.41
2023-02-04T20:02:06.885Z,-1.38
2023-02-04T20:04:41.551Z,-1.38
2023-02-04T20:07:16.156Z,-1.37
2023-02-04T20:09:43.281Z,-1.37
2023-02-04T20:12:16.353Z,-1.42
2023-02-04T20:14:47.138Z,-1.40
2023-02-04T20:17:20.157Z,-1.42
2023-02-04T20:19:47.838Z,-1.47
2023-02-04T20:22:17.606Z,-1.50
2023-02-04T20:24:50.068Z,-1.49
2023-02-04T20:27:21.659Z,-1.47
2023-02-04T20:29:51.164Z,-1.44
2023-02-04T20:32:28.330Z,-1.44
2023-02-04T20:35:07.326Z,-1.47
2023-02-04T20:37:34.646Z,-1.47
2023-02-04T20:40:23.072Z,-1.47
2023-02-04T20:43:17.384Z,-1.49
2023-02-04T20:46:00.242Z,-1.49
2023-02-04T20:48:36.151Z,-1.48
2023-02-04T20:51:04.873Z,-1.51
2023-02-04T20:53:49.706Z,-1.50
2023-02-04T20:56:25.450Z,-1.49
2023-02-04T20:59:27.644Z,-1.42
2023-02-04T21:01:56.155Z,-1.48
2023-02-04T21:04:38.037Z,-1.43
2023-02-04T21:07:18.572Z,-1.47
2023-02-04T21:09:46.097Z,-1.50
2023-02-04T21:12:13.010Z,-1.47
2023-02-04T21:14:40.074Z,-1.47
2023-02-04T21:17:07.103Z,-1.46
2023-02-04T21:19:35.403Z,-1.46
2023-02-04T21:22:02.624Z,-1.47
2023-02-04T21:24:33.345Z,-1.46
2023-02-04T21:27:00.309Z,-1.48
2023-02-04T21:29:27.253Z,-1.50
2023-02-04T21:31:54.723Z,-1.48
2023-02-04T21:34:22.015Z,-1.50
2023-02-04T21:36:48.969Z,-1.50
2023-02-04T21:39:16.046Z,-1.50
2023-02-04T21:41:43.125Z,-1.53
2023-02-04T21:44:10.063Z,-1.53
2023-02-04T21:46:37.007Z,-1.54
2023-02-04T21:49:05.375Z,-1.53
2023-02-04T21:51:32.318Z,-1.53
2023-02-04T21:54:00.131Z,-1.56
2023-02-04T21:56:27.142Z,-1.53
2023-02-04T21:58:54.441Z,-1.55
2023-02-04T22:01:21.478Z,-1.52
2023-02-04T22:03:48.433Z,-1.52
2023-02-04T22:06:15.389Z,-1.51
2023-02-04T22:08:42.325Z,-1.52
2023-02-04T22:11:09.257Z,-1.51
2023-02-04T22:13:54.951Z,-1.50
2023-02-04T22:16:21.998Z,-1.48
2023-02-04T22:18:48.997Z,-1.47
2023-02-04T22:21:15.953Z,-1.44
2023-02-04T22:23:42.823Z,-1.46
2023-02-04T22:26:09.693Z,-1.42
2023-02-04T22:28:36.570Z,-1.42
2023-02-04T22:31:03.682Z,-1.43
2023-02-04T22:33:30.620Z,-1.44
2023-02-04T22:35:57.558Z,-1.46
2023-02-04T22:38:24.473Z,-1.48
2023-02-04T22:40:51.410Z,-1.48
2023-02-04T22:43:18.361Z,-1.51
2023-02-04T22:45:45.402Z,-1.50
2023-02-04T22:48:12.305Z,-1.56
2023-02-04T22:50:39.148Z,-1.56
2023-02-04T22:53:06.041Z,-1.60
2023-02-04T22:55:33.224Z,-1.61
2023-02-04T22:58:00.339Z,-1.66
2023-02-04T23:00:27.268Z,-1.67
2023-02-04T23:02:54.113Z,-1.68
2023-02-04T23:05:21.053Z,-1.72
2023-02-04T23:07:47.986Z,-1.80
2023-02-04T23:10:15.029Z,-1.83
2023-02-04T23:12:42.013Z,-1.85
2023-02-04T23:15:12.276Z,-1.84
2023-02-04T23:17:39.956Z,-1.85
2023-02-04T23:20:07.470Z,-1.84
2023-02-04T23:22:34.452Z,-1.89
2023-02-04T23:25:01.336Z,-1.90
2023-02-04T23:27:28.304Z,-1.89
2023-02-04T23:29:55.261Z,-1.91
2023-02-04T23:32:23.476Z,-1.98
2023-02-04T23:34:50.312Z,-2.04
2023-02-04T23:37:17.193Z,-2.07
2023-02-04T23:39:44.098Z,-2.14
2023-02-04T23:42:16.889Z,-2.17
2023-02-04T23:44:43.816Z,-2.20
2023-02-04T23:47:10.794Z,-2.21
2023-02-04T23:49:37.777Z,-2.25
2023-02-04T23:52:05.804Z,-2.30
2023-02-04T23:54:32.686Z,-2.35
2023-02-04T23:57:00.153Z,-2.40
2023-02-04T23:59:27.117Z,-2.40
